Flugplatz Holzdorf Airport

Bericht für ETSH

vom 19.11. um 10:20 UTC

Wind 10 kt aus 220°

Sichtweite 10 km oder mehr

gering bewölkt in 2200 ft

aufgelockert bewölkt in 17000 ft

Temperatur 8.0°C

Taupunkt 2.0°C

Luftfeuchtigkeit 66%

Luftdruck 1016 hPa

ETSH 191020Z 22010KT 9999 FEW022 SCT170 08/02 Q1016 BLU+BLU+

Prognose für ETSH

vom 19.11. um 00:00 UTC

Zwischen 00:00 UTC und 00:00 UTC

Wind 12 kt aus 220°

Sichtweite 10 km oder mehr

keine signifikanten Wettererscheinungen

aufgelockert bewölkt in 5000 ft

aufgebrochene Bewölkung in 25000 ft


Zwischen 00:00 und 00:00 UTC übergehend zu

Wind 4 kt aus 210°

Sichtweite 10 km oder mehr

keine signifikanten Wettererscheinungen

aufgelockert bewölkt in 2800 ft

aufgebrochene Bewölkung in 5000 ft

TAF ETSH 190818Z 1909/1918 22012KT 9999 NSW SCT050 BKN250 BECMG 1912/1915 21004KT 9999 NSW SCT028 BKN050
Impressum